KQFT

Yangsu-ri

Yangsu-ri, South Korea
METAR KQFT 182230Z AUTO 34002KT 9999 CLR 18/16 A2969 RMK A02 TSNO
Observed Flight Rules
Jun-18 @ 22:30 UTC (13 minutes ago) Visual Flight Rules
Wind Visibility Clouds
340° at 2 knots 10,000+ meters
  • Clear skies
Temperatures Readings
Current 18°C / 64°F
Dewpoint 16°C / 61°F
Humidity 88%
Altimeter 29.69" Hg
Pressure 1005 hPa
METAR KQFT 182230Z AUTO 34002KT 9999 CLR 18/16 A2969 RMK A02 TSNO
Observed Flight Rules
Jun-18 @ 22:30 UTC
(13 minutes ago)
VFR
Wind Visibility
340° at 2 knots 10,000+ meters
Clouds
  • Clear skies
Temperature Dewpoint
18°C / 64°F 16°C / 61°F
Humidity Altimeter Pressure
88% 29.69" Hg 1005 hPa